createdAt,value
2022-09-13T00:01:13.411Z,4.57
2022-09-13T00:03:42.787Z,4.57
2022-09-13T00:06:15.029Z,4.53
2022-09-13T00:08:45.919Z,4.10
2022-09-13T00:11:18.818Z,4.78
2022-09-13T00:13:48.174Z,4.57
2022-09-13T00:16:19.575Z,4.10
2022-09-13T00:18:49.457Z,4.32
2022-09-13T00:21:21.566Z,4.30
2022-09-13T00:23:54.956Z,4.20
2022-09-13T00:26:28.424Z,5.05
2022-09-13T00:29:07.977Z,4.13
2022-09-13T00:31:42.602Z,4.20
2022-09-13T00:34:13.735Z,4.82
2022-09-13T00:36:44.251Z,5.10
2022-09-13T00:39:15.014Z,4.50
2022-09-13T00:41:48.246Z,4.47
2022-09-13T00:44:55.245Z,5.47
2022-09-13T00:47:43.775Z,4.90
2022-09-13T00:50:29.788Z,4.80
2022-09-13T00:53:06.522Z,4.43
2022-09-13T00:55:44.179Z,4.57
2022-09-13T00:58:20.597Z,5.10
2022-09-13T01:00:51.528Z,5.13
2022-09-13T01:03:25.506Z,4.20
2022-09-13T01:06:00.697Z,5.22
2022-09-13T01:08:32.235Z,4.90
2022-09-13T01:11:04.504Z,4.53
2022-09-13T01:13:35.491Z,4.35
2022-09-13T01:16:09.192Z,5.00
2022-09-13T01:18:38.607Z,4.65
2022-09-13T01:22:10.690Z,4.55
2022-09-13T01:25:13.383Z,4.32
2022-09-13T01:28:13.670Z,5.07
2022-09-13T01:31:05.744Z,4.88
2022-09-13T01:34:04.747Z,4.75
2022-09-13T01:37:15.748Z,4.70
2022-09-13T01:40:06.270Z,4.95
2022-09-13T01:42:54.939Z,4.20
2022-09-13T01:45:36.874Z,5.13
2022-09-13T01:48:17.451Z,4.55
2022-09-13T01:50:54.058Z,4.78
2022-09-13T01:53:33.392Z,4.60
2022-09-13T01:56:07.336Z,5.18
2022-09-13T01:58:45.183Z,4.72
2022-09-13T02:01:18.919Z,4.97
2022-09-13T02:03:56.756Z,4.82
2022-09-13T02:06:32.147Z,4.40
2022-09-13T02:09:04.992Z,4.45
2022-09-13T02:11:36.791Z,4.03
2022-09-13T02:14:24.642Z,4.10
2022-09-13T02:17:01.251Z,4.30
2022-09-13T02:19:38.752Z,4.65
2022-09-13T02:22:12.926Z,5.22
2022-09-13T02:24:46.312Z,4.60
2022-09-13T02:27:27.140Z,4.50
2022-09-13T02:30:02.776Z,5.05
2022-09-13T02:32:37.470Z,4.45
2022-09-13T02:35:13.385Z,5.00
2022-09-13T02:38:33.272Z,4.07
2022-09-13T02:41:11.823Z,4.88
2022-09-13T02:43:45.349Z,4.43
2022-09-13T02:46:31.458Z,4.35
2022-09-13T02:49:07.096Z,4.47
2022-09-13T02:51:46.314Z,4.30
2022-09-13T02:54:27.086Z,4.78
2022-09-13T02:57:03.938Z,4.50
2022-09-13T02:59:34.343Z,4.60
2022-09-13T03:02:08.965Z,4.13
2022-09-13T03:04:39.762Z,4.20
2022-09-13T03:07:13.846Z,5.05
2022-09-13T03:09:49.992Z,4.78
2022-09-13T03:12:37.369Z,4.32
2022-09-13T03:15:20.586Z,4.22
2022-09-13T03:18:01.907Z,4.82
2022-09-13T03:20:46.546Z,4.63
2022-09-13T03:23:47.028Z,4.97
2022-09-13T03:26:47.806Z,4.75
2022-09-13T03:29:35.882Z,4.40
2022-09-13T03:32:55.866Z,4.80
2022-09-13T03:35:56.102Z,4.65
2022-09-13T03:38:32.978Z,4.85
2022-09-13T03:41:10.682Z,4.57
2022-09-13T03:44:15.011Z,4.43
2022-09-13T03:46:49.163Z,4.28
2022-09-13T03:49:20.446Z,4.68
2022-09-13T03:51:52.498Z,4.45
2022-09-13T03:54:25.546Z,4.75
2022-09-13T03:57:13.768Z,4.32
2022-09-13T03:59:47.244Z,3.88
2022-09-13T04:02:17.538Z,4.38
2022-09-13T04:04:48.451Z,4.90
2022-09-13T04:07:20.411Z,4.10
2022-09-13T04:09:50.139Z,3.72
2022-09-13T04:12:20.808Z,4.88
2022-09-13T04:14:49.859Z,4.45
2022-09-13T04:17:25.875Z,4.57
2022-09-13T04:20:12.005Z,5.03
2022-09-13T04:22:42.266Z,4.60
2022-09-13T04:25:11.221Z,5.78
2022-09-13T04:27:41.677Z,4.30
2022-09-13T04:30:14.668Z,4.85
2022-09-13T04:32:46.774Z,5.22
2022-09-13T04:35:20.860Z,4.68
2022-09-13T04:37:50.709Z,4.60
2022-09-13T04:40:25.313Z,4.82
2022-09-13T04:43:06.493Z,5.60
2022-09-13T04:45:35.500Z,5.05
2022-09-13T04:48:05.086Z,4.63
2022-09-13T04:50:34.128Z,5.13
2022-09-13T04:53:05.903Z,4.72
2022-09-13T04:55:36.878Z,5.50
2022-09-13T04:58:07.445Z,5.25
2022-09-13T05:00:37.424Z,5.07
2022-09-13T05:03:08.858Z,5.70
2022-09-13T05:05:40.856Z,4.72
2022-09-13T05:08:11.791Z,5.40
2022-09-13T05:10:40.822Z,5.47
2022-09-13T05:13:11.142Z,5.00
2022-09-13T05:15:40.121Z,4.90
2022-09-13T05:18:09.127Z,5.65
2022-09-13T05:20:38.259Z,5.00
2022-09-13T05:23:07.650Z,4.90
2022-09-13T05:25:36.635Z,4.60
2022-09-13T05:28:05.709Z,4.32
2022-09-13T05:31:23.005Z,5.20
2022-09-13T05:34:08.235Z,5.30
2022-09-13T05:36:39.254Z,4.93
2022-09-13T05:39:29.730Z,5.47
2022-09-13T05:42:02.249Z,4.82
2022-09-13T05:44:31.224Z,5.15
2022-09-13T05:47:01.899Z,5.38
2022-09-13T05:49:31.023Z,4.18
2022-09-13T05:52:00.233Z,4.30
2022-09-13T05:54:29.440Z,5.63
2022-09-13T05:56:58.603Z,4.60
2022-09-13T05:59:27.652Z,4.53
2022-09-13T06:02:01.003Z,5.18
2022-09-13T06:04:30.266Z,4.40
2022-09-13T06:07:00.536Z,5.03
2022-09-13T06:09:30.459Z,5.40
2022-09-13T06:12:00.100Z,5.15
2022-09-13T06:14:29.137Z,4.90
2022-09-13T06:17:01.062Z,5.45
2022-09-13T06:19:33.792Z,4.90
2022-09-13T06:22:03.296Z,4.38
2022-09-13T06:24:32.533Z,5.70
2022-09-13T06:27:01.527Z,5.60
2022-09-13T06:29:30.507Z,4.20
2022-09-13T06:31:59.428Z,4.00
2022-09-13T06:34:34.600Z,4.10
2022-09-13T06:37:08.187Z,4.70
2022-09-13T06:39:40.166Z,4.50
2022-09-13T06:42:09.179Z,5.20
2022-09-13T06:44:42.582Z,5.75
2022-09-13T06:47:11.683Z,4.90
2022-09-13T06:49:46.764Z,5.10
2022-09-13T06:52:15.932Z,4.20
2022-09-13T06:54:45.197Z,4.75
2022-09-13T06:57:14.557Z,4.28
2022-09-13T06:59:43.701Z,4.35
2022-09-13T07:02:13.603Z,4.97
2022-09-13T07:04:44.027Z,4.65
2022-09-13T07:07:13.105Z,4.55
2022-09-13T07:09:44.808Z,4.10
2022-09-13T07:12:16.629Z,4.82
2022-09-13T07:14:49.115Z,5.53
2022-09-13T07:17:18.134Z,4.70
2022-09-13T07:19:48.477Z,4.68
2022-09-13T07:22:17.531Z,4.30
2022-09-13T07:24:47.462Z,4.40
2022-09-13T07:27:18.847Z,4.63
2022-09-13T07:29:50.931Z,4.07
2022-09-13T07:32:19.900Z,4.55
2022-09-13T07:34:50.462Z,4.70
2022-09-13T07:37:19.528Z,4.45
2022-09-13T07:39:51.597Z,4.10
2022-09-13T07:42:23.417Z,3.70
2022-09-13T07:44:54.753Z,4.65
2022-09-13T07:47:23.784Z,4.93
2022-09-13T07:49:54.416Z,4.95
2022-09-13T07:52:23.447Z,4.15
2022-09-13T07:54:52.731Z,4.40
2022-09-13T07:57:21.821Z,4.43
2022-09-13T07:59:51.451Z,4.53
2022-09-13T08:02:20.693Z,4.20
2022-09-13T08:04:49.714Z,4.60
2022-09-13T08:07:20.171Z,4.30
2022-09-13T08:09:49.366Z,4.53
2022-09-13T08:12:18.639Z,4.00
2022-09-13T08:14:47.579Z,5.10
2022-09-13T08:17:16.599Z,4.63
2022-09-13T08:19:45.594Z,4.32
2022-09-13T08:22:14.666Z,4.80
2022-09-13T08:24:45.147Z,4.47
2022-09-13T08:27:14.467Z,4.60
2022-09-13T08:29:43.501Z,5.53
2022-09-13T08:32:12.460Z,4.85
2022-09-13T08:34:41.574Z,4.95
2022-09-13T08:37:11.901Z,4.63
2022-09-13T08:39:41.065Z,4.53
2022-09-13T08:42:29.209Z,5.03
2022-09-13T08:45:00.998Z,4.82
2022-09-13T08:47:40.440Z,3.90
2022-09-13T08:50:21.044Z,4.72
2022-09-13T08:53:13.140Z,6.15
2022-09-13T08:55:52.706Z,4.38
2022-09-13T08:58:41.491Z,4.45
2022-09-13T09:01:23.051Z,5.20
2022-09-13T09:03:58.658Z,4.65
2022-09-13T09:06:29.253Z,3.80
2022-09-13T09:09:04.858Z,4.25
2022-09-13T09:11:42.769Z,3.70
2022-09-13T09:14:23.384Z,3.67
2022-09-13T09:16:57.065Z,3.73
2022-09-13T09:19:34.326Z,3.80
2022-09-13T09:22:07.274Z,4.53
2022-09-13T09:24:40.079Z,3.80
2022-09-13T09:27:17.326Z,3.40
2022-09-13T09:29:50.668Z,3.40
2022-09-13T09:32:48.257Z,3.53
2022-09-13T09:35:34.366Z,3.00
2022-09-13T09:38:24.557Z,3.63
2022-09-13T09:40:54.305Z,3.07
2022-09-13T09:43:30.050Z,2.70
2022-09-13T09:46:05.221Z,3.20
2022-09-13T09:48:42.358Z,3.17
2022-09-13T09:51:15.060Z,3.87
2022-09-13T09:53:48.727Z,3.47
2022-09-13T09:56:26.970Z,2.45
2022-09-13T09:58:56.294Z,2.53
2022-09-13T10:01:30.282Z,2.43
2022-09-13T10:04:18.177Z,3.07
2022-09-13T10:06:47.769Z,2.50
2022-09-13T10:09:19.667Z,2.63
2022-09-13T10:11:51.725Z,2.73
2022-09-13T10:14:42.590Z,2.23
2022-09-13T10:17:20.268Z,2.50
2022-09-13T10:19:56.440Z,2.60
2022-09-13T10:22:26.252Z,2.30
2022-09-13T10:24:55.961Z,2.50
2022-09-13T10:27:31.199Z,2.87
2022-09-13T10:30:02.176Z,2.37
2022-09-13T10:32:33.082Z,2.40
2022-09-13T10:35:17.912Z,2.33
2022-09-13T10:37:47.218Z,2.00
2022-09-13T10:40:25.787Z,2.40
2022-09-13T10:42:58.294Z,2.20
2022-09-13T10:45:31.791Z,2.63
2022-09-13T10:48:07.051Z,1.80
2022-09-13T10:50:36.302Z,2.13
2022-09-13T10:53:26.143Z,2.13
2022-09-13T10:55:55.940Z,2.00
2022-09-13T10:58:24.881Z,2.20
2022-09-13T11:01:40.930Z,2.47
2022-09-13T11:05:06.320Z,1.90
2022-09-13T11:07:54.727Z,1.67
2022-09-13T11:10:31.088Z,1.93
2022-09-13T11:13:08.947Z,2.00
2022-09-13T11:15:54.704Z,1.80
2022-09-13T11:18:56.217Z,1.80
2022-09-13T11:21:45.004Z,2.00
2022-09-13T11:24:43.594Z,2.00
2022-09-13T11:27:24.891Z,2.10
2022-09-13T11:30:12.511Z,1.77
2022-09-13T11:33:04.713Z,2.17
2022-09-13T11:35:49.635Z,1.87
2022-09-13T11:38:36.859Z,1.90
2022-09-13T11:41:28.246Z,1.80
2022-09-13T11:44:20.425Z,1.87
2022-09-13T11:46:57.676Z,1.80
2022-09-13T11:49:41.994Z,1.63
2022-09-13T11:52:24.277Z,1.70
2022-09-13T11:55:18.890Z,1.90
2022-09-13T11:57:53.583Z,2.10
2022-09-13T12:00:26.237Z,1.80
2022-09-13T12:03:06.909Z,2.23
2022-09-13T12:05:41.932Z,1.93
2022-09-13T12:08:20.327Z,2.40
2022-09-13T12:10:55.350Z,1.70
2022-09-13T12:13:28.824Z,1.53
2022-09-13T12:16:04.229Z,1.70
2022-09-13T12:18:38.957Z,1.80
2022-09-13T12:21:12.614Z,1.47
2022-09-13T12:23:53.506Z,1.80
2022-09-13T12:26:31.582Z,1.77
2022-09-13T12:29:07.501Z,1.83
2022-09-13T12:31:36.564Z,2.10
2022-09-13T12:34:09.368Z,1.93
2022-09-13T12:37:16.636Z,2.70
2022-09-13T12:40:12.257Z,1.93
2022-09-13T12:43:11.486Z,1.93
2022-09-13T12:46:16.441Z,2.10
2022-09-13T12:49:20.437Z,1.87
2022-09-13T12:52:08.278Z,1.90
2022-09-13T12:55:06.206Z,1.67
2022-09-13T12:57:42.496Z,1.90
2022-09-13T13:00:21.969Z,1.80
2022-09-13T13:03:11.695Z,1.93
2022-09-13T13:05:46.232Z,1.83
2022-09-13T13:08:31.080Z,1.87
2022-09-13T13:11:07.978Z,2.00
2022-09-13T13:13:40.116Z,1.73
2022-09-13T13:16:29.621Z,2.20
2022-09-13T13:18:59.842Z,1.77
2022-09-13T13:21:36.466Z,1.63
2022-09-13T13:24:46.261Z,1.77
2022-09-13T13:27:48.086Z,1.90
2022-09-13T13:30:56.398Z,1.93
2022-09-13T13:33:31.982Z,1.90
2022-09-13T13:36:26.466Z,1.67
2022-09-13T13:38:59.831Z,1.57
2022-09-13T13:41:50.112Z,1.90
2022-09-13T13:45:21.623Z,2.20
2022-09-13T13:48:10.875Z,1.80
2022-09-13T13:51:22.901Z,2.00
2022-09-13T13:54:06.655Z,1.40
2022-09-13T13:56:51.412Z,1.90
2022-09-13T13:59:29.021Z,1.53
2022-09-13T14:02:01.659Z,1.60
2022-09-13T14:05:05.076Z,1.70
2022-09-13T14:08:04.400Z,1.83
2022-09-13T14:10:45.568Z,1.70
2022-09-13T14:13:43.228Z,1.67
2022-09-13T14:16:33.143Z,1.50
2022-09-13T14:19:26.854Z,1.77
2022-09-13T14:22:18.001Z,1.60
2022-09-13T14:24:49.772Z,1.90
2022-09-13T14:27:23.881Z,1.90
2022-09-13T14:29:55.676Z,1.77
2022-09-13T14:32:33.900Z,1.43
2022-09-13T14:35:23.759Z,1.60
2022-09-13T14:37:52.854Z,1.60
2022-09-13T14:40:27.557Z,1.40
2022-09-13T14:42:59.520Z,1.53
2022-09-13T14:45:36.475Z,1.10
2022-09-13T14:48:09.461Z,1.80
2022-09-13T14:50:43.626Z,1.50
2022-09-13T14:53:18.297Z,1.70
2022-09-13T14:55:53.041Z,1.57
2022-09-13T14:58:28.019Z,1.90
2022-09-13T15:01:00.863Z,1.60
2022-09-13T15:03:30.690Z,2.20
2022-09-13T15:06:02.803Z,1.33
2022-09-13T15:08:47.766Z,1.50
2022-09-13T15:11:35.123Z,1.27
2022-09-13T15:14:22.119Z,1.50
2022-09-13T15:16:53.856Z,1.60
2022-09-13T15:19:32.874Z,1.57
2022-09-13T15:22:24.749Z,1.53
2022-09-13T15:24:56.442Z,1.60
2022-09-13T15:27:32.576Z,1.40
2022-09-13T15:30:05.936Z,1.40
2022-09-13T15:32:41.710Z,1.30
2022-09-13T15:35:23.515Z,1.10
2022-09-13T15:38:02.021Z,1.30
2022-09-13T15:40:42.687Z,1.50
2022-09-13T15:43:13.756Z,1.50
2022-09-13T15:45:42.763Z,1.37
2022-09-13T15:48:24.860Z,1.07
2022-09-13T15:51:10.149Z,1.27
2022-09-13T15:53:41.781Z,1.33
2022-09-13T15:56:16.143Z,1.40
2022-09-13T15:58:47.327Z,1.50
2022-09-13T16:01:18.353Z,1.30
2022-09-13T16:03:47.480Z,1.70
2022-09-13T16:06:16.608Z,1.63
2022-09-13T16:08:45.834Z,1.40
2022-09-13T16:11:15.062Z,1.70
2022-09-13T16:13:44.047Z,1.57
2022-09-13T16:16:15.589Z,1.90
2022-09-13T16:18:45.636Z,1.30
2022-09-13T16:21:15.284Z,1.70
2022-09-13T16:23:44.297Z,1.73
2022-09-13T16:26:13.430Z,2.10
2022-09-13T16:28:42.504Z,1.60
2022-09-13T16:31:11.700Z,2.30
2022-09-13T16:33:42.706Z,2.00
2022-09-13T16:36:18.748Z,2.20
2022-09-13T16:38:47.975Z,1.67
2022-09-13T16:41:17.130Z,1.70
2022-09-13T16:43:49.655Z,2.23
2022-09-13T16:46:19.477Z,2.07
2022-09-13T16:48:55.654Z,2.07
2022-09-13T16:51:26.071Z,2.20
2022-09-13T16:53:55.892Z,2.33
2022-09-13T16:56:26.610Z,2.00
2022-09-13T16:58:55.890Z,1.90
2022-09-13T17:01:27.163Z,2.87
2022-09-13T17:03:58.435Z,2.53
2022-09-13T17:06:28.422Z,2.63
2022-09-13T17:09:01.646Z,3.33
2022-09-13T17:11:34.177Z,2.30
2022-09-13T17:14:05.031Z,2.90
2022-09-13T17:16:38.656Z,2.77
2022-09-13T17:19:17.505Z,2.30
2022-09-13T17:21:47.150Z,2.17
2022-09-13T17:24:16.192Z,2.50
2022-09-13T17:26:46.693Z,3.80
2022-09-13T17:29:16.741Z,3.80
2022-09-13T17:31:45.946Z,3.07
2022-09-13T17:34:16.365Z,2.77
2022-09-13T17:36:49.214Z,2.97
2022-09-13T17:39:22.457Z,2.77
2022-09-13T17:41:51.474Z,3.10
2022-09-13T17:44:20.780Z,3.00
2022-09-13T17:46:49.988Z,2.63
2022-09-13T17:49:20.952Z,2.27
2022-09-13T17:51:50.113Z,2.73
2022-09-13T17:54:19.403Z,2.20
2022-09-13T17:56:48.663Z,3.23
2022-09-13T17:59:20.486Z,3.30
2022-09-13T18:01:52.649Z,3.60
2022-09-13T18:04:24.731Z,3.40
2022-09-13T18:06:54.686Z,3.33
2022-09-13T18:09:24.474Z,3.00
2022-09-13T18:11:53.698Z,3.50
2022-09-13T18:14:23.835Z,3.20
2022-09-13T18:16:58.487Z,2.70
2022-09-13T18:19:45.253Z,3.00
2022-09-13T18:22:15.868Z,3.50
2022-09-13T18:24:45.309Z,3.60
2022-09-13T18:27:14.990Z,2.80
2022-09-13T18:29:44.351Z,3.47
2022-09-13T18:32:13.450Z,2.80
2022-09-13T18:34:44.200Z,3.20
2022-09-13T18:37:13.770Z,3.20
2022-09-13T18:39:42.871Z,3.60
2022-09-13T18:42:12.038Z,2.97
2022-09-13T18:44:41.252Z,3.80
2022-09-13T18:47:12.971Z,5.10
2022-09-13T18:49:43.379Z,5.13
2022-09-13T18:52:12.474Z,6.70
2022-09-13T18:54:43.046Z,7.20
2022-09-13T18:57:12.522Z,5.97
2022-09-13T18:59:41.482Z,7.40
2022-09-13T19:02:11.872Z,8.60
2022-09-13T19:04:41.726Z,7.10
2022-09-13T19:07:16.242Z,5.80
2022-09-13T19:09:45.300Z,5.53
2022-09-13T19:12:14.330Z,4.87
2022-09-13T19:14:44.410Z,5.40
2022-09-13T19:17:13.454Z,4.30
2022-09-13T19:19:42.702Z,4.40
2022-09-13T19:22:11.793Z,4.83
2022-09-13T19:24:43.257Z,4.73
2022-09-13T19:27:13.333Z,4.53
2022-09-13T19:29:42.383Z,4.43
2022-09-13T19:32:11.513Z,3.93
2022-09-13T19:34:40.611Z,4.20
2022-09-13T19:37:09.679Z,4.50
2022-09-13T19:39:38.674Z,4.93
2022-09-13T19:42:09.379Z,4.03
2022-09-13T19:44:38.378Z,4.93
2022-09-13T19:47:53.097Z,4.83
2022-09-13T19:49:58.954Z,4.27
2022-09-13T19:52:28.057Z,4.10
2022-09-13T19:54:58.598Z,4.50
2022-09-13T19:57:29.442Z,4.83
2022-09-13T19:59:58.667Z,3.60
2022-09-13T20:02:27.994Z,4.40
2022-09-13T20:04:57.191Z,17.23
2022-09-13T20:07:26.312Z,6.47
2022-09-13T20:09:55.369Z,3.70
2022-09-13T20:12:24.551Z,4.00
2022-09-13T20:14:54.825Z,3.60
2022-09-13T20:17:25.419Z,4.50
2022-09-13T20:19:54.522Z,3.80
2022-09-13T20:22:23.658Z,3.77
2022-09-13T20:24:52.698Z,4.33
2022-09-13T20:27:21.694Z,4.60
2022-09-13T20:29:51.747Z,4.10
2022-09-13T20:32:22.118Z,3.97
2022-09-13T20:34:51.965Z,4.80
2022-09-13T20:37:22.468Z,3.75
2022-09-13T20:39:51.708Z,5.40
2022-09-13T20:42:20.854Z,5.10
2022-09-13T20:44:49.951Z,4.60
2022-09-13T20:47:18.984Z,4.07
2022-09-13T20:49:49.337Z,3.83
2022-09-13T20:52:18.322Z,4.27
2022-09-13T20:54:47.299Z,4.40
2022-09-13T20:57:16.245Z,4.20
2022-09-13T20:59:45.356Z,4.25
2022-09-13T21:02:14.585Z,4.80
2022-09-13T21:04:43.722Z,4.20
2022-09-13T21:07:32.213Z,3.60
2022-09-13T21:10:01.511Z,4.10
2022-09-13T21:12:31.728Z,4.00
2022-09-13T21:15:00.718Z,4.15
2022-09-13T21:17:29.723Z,4.20
2022-09-13T21:19:59.427Z,4.25
2022-09-13T21:22:29.951Z,4.87
2022-09-13T21:24:59.027Z,4.82
2022-09-13T21:27:28.204Z,4.27
2022-09-13T21:29:57.513Z,4.15
2022-09-13T21:32:26.527Z,4.00
2022-09-13T21:34:55.533Z,4.43
2022-09-13T21:37:24.666Z,4.07
2022-09-13T21:39:55.166Z,4.10
2022-09-13T21:42:24.469Z,4.27
2022-09-13T21:44:53.555Z,4.25
2022-09-13T21:47:22.667Z,4.00
2022-09-13T21:49:51.690Z,3.28
2022-09-13T21:52:20.819Z,3.70
2022-09-13T21:54:50.016Z,3.60
2022-09-13T21:57:20.698Z,3.50
2022-09-13T21:59:51.456Z,3.47
2022-09-13T22:02:20.748Z,3.17
2022-09-13T22:04:49.966Z,3.33
2022-09-13T22:07:19.307Z,3.38
2022-09-13T22:09:48.303Z,3.30
2022-09-13T22:12:17.285Z,3.42
2022-09-13T22:14:48.517Z,3.87
2022-09-13T22:17:17.767Z,3.20
2022-09-13T22:19:46.963Z,3.47
2022-09-13T22:22:16.161Z,3.47
2022-09-13T22:24:46.497Z,2.55
2022-09-13T22:27:15.560Z,3.40
2022-09-13T22:29:44.588Z,3.22
2022-09-13T22:32:14.981Z,2.85
2022-09-13T22:34:44.383Z,3.15
2022-09-13T22:37:13.381Z,3.05
2022-09-13T22:39:42.475Z,3.15
2022-09-13T22:42:11.677Z,2.90
2022-09-13T22:44:40.663Z,3.03
2022-09-13T22:47:09.649Z,3.10
2022-09-13T22:49:39.933Z,3.17
2022-09-13T22:52:09.151Z,2.80
2022-09-13T22:54:38.370Z,3.00
2022-09-13T22:57:07.543Z,3.00
2022-09-13T22:59:36.846Z,3.30
2022-09-13T23:02:06.611Z,2.97
2022-09-13T23:04:35.624Z,3.75
2022-09-13T23:07:06.475Z,3.30
2022-09-13T23:09:35.595Z,3.60
2022-09-13T23:12:04.882Z,3.50
2022-09-13T23:14:33.839Z,3.05
2022-09-13T23:17:02.986Z,3.30
2022-09-13T23:19:32.070Z,3.67
2022-09-13T23:22:01.139Z,3.25
2022-09-13T23:24:31.588Z,3.20
2022-09-13T23:27:01.600Z,3.50
2022-09-13T23:29:31.065Z,3.35
2022-09-13T23:32:00.261Z,3.58
2022-09-13T23:34:29.653Z,3.55
2022-09-13T23:36:58.680Z,3.58
2022-09-13T23:39:27.879Z,3.70
2022-09-13T23:41:58.358Z,3.85
2022-09-13T23:44:29.074Z,3.85
2022-09-13T23:46:58.186Z,3.53
2022-09-13T23:49:27.251Z,3.55
2022-09-13T23:51:56.355Z,3.92
2022-09-13T23:54:25.431Z,3.40
2022-09-13T23:56:54.488Z,3.30
2022-09-13T23:59:25.519Z,3.95
